Time;durP1;ratioP1;P1;durP2;ratioP2;P2;SDS_P1;SDS_P2;PMS_P1;PMS_P2;Temp;Humidity;BMP_temperature;BMP_pressure;BME280_temperature;BME280_humidity;BME280_pressure;Samples;Min_cycle;Max_cycle;Signal;HPM_P1;HPM_P2
2022/07/06 00:03:45;;;;;;;12.02;2.60;;;;;;;;;;21176063;28;20067;-63
2022/07/06 00:13:47;;;;;;;12.10;2.63;;;;;;;;;;21157036;28;20043;-62
2022/07/06 00:23:51;;;;;;;8.40;2.80;;;;;;;;;;21176148;28;20048;-62
2022/07/06 00:33:54;;;;;;;13.95;3.28;;;;;;;;;;21174700;28;20055;-62
2022/07/06 00:43:56;;;;;;;12.45;3.17;;;;;;;;;;21173256;28;20049;-63
2022/07/06 00:54:03;;;;;;;16.55;3.47;;;;;;;;;;21173460;28;20052;-63
2022/07/06 01:04:05;;;;;;;12.75;3.28;;;;;;;;;;21171093;28;20098;-62
2022/07/06 01:14:08;;;;;;;15.63;3.58;;;;;;;;;;21171490;28;20503;-62
2022/07/06 01:24:12;;;;;;;12.23;3.05;;;;;;;;;;21169947;28;20058;-63
2022/07/06 01:34:19;;;;;;;13.40;2.85;;;;;;;;;;21168945;28;20105;-64
2022/07/06 01:44:26;;;;;;;15.82;3.35;;;;;;;;;;21168398;28;20051;-62
2022/07/06 01:54:36;;;;;;;14.85;3.20;;;;;;;;;;21167030;28;20055;-62
2022/07/06 02:04:41;;;;;;;16.45;3.40;;;;;;;;;;21165551;28;20048;-62
2022/07/06 02:14:50;;;;;;;12.07;3.47;;;;;;;;;;21166079;28;20116;-62
2022/07/06 02:24:55;;;;;;;11.75;3.10;;;;;;;;;;21164741;28;20090;-63
2022/07/06 02:34:59;;;;;;;15.38;4.10;;;;;;;;;;21164465;28;20047;-63
2022/07/06 02:45:03;;;;;;;12.20;2.90;;;;;;;;;;21164588;28;20403;-61
2022/07/06 02:55:07;;;;;;;11.50;4.47;;;;;;;;;;21163262;28;20083;-62
2022/07/06 03:05:09;;;;;;;14.02;3.75;;;;;;;;;;21162830;28;20051;-62
2022/07/06 03:15:12;;;;;;;15.15;3.30;;;;;;;;;;21166980;28;20052;-62
2022/07/06 03:25:14;;;;;;;16.15;3.28;;;;;;;;;;21179731;28;20344;-62
2022/07/06 03:35:16;;;;;;;11.48;3.38;;;;;;;;;;21178719;28;20047;-62
2022/07/06 03:45:19;;;;;;;21.20;3.90;;;;;;;;;;21177966;28;20452;-62
2022/07/06 03:55:22;;;;;;;14.50;4.07;;;;;;;;;;21177022;28;20047;-62
2022/07/06 04:05:24;;;;;;;10.60;3.55;;;;;;;;;;21176057;28;20567;-62
2022/07/06 04:15:26;;;;;;;18.00;3.78;;;;;;;;;;21175649;28;20071;-63
2022/07/06 04:25:28;;;;;;;12.13;3.60;;;;;;;;;;21174500;28;20475;-62
2022/07/06 04:35:30;;;;;;;12.10;3.70;;;;;;;;;;21173836;28;20090;-63
2022/07/06 04:45:32;;;;;;;14.75;4.03;;;;;;;;;;21173037;28;20047;-63
2022/07/06 04:55:35;;;;;;;10.27;3.42;;;;;;;;;;21172472;28;20051;-61
2022/07/06 05:05:37;;;;;;;16.40;4.25;;;;;;;;;;21170812;28;20135;-64
2022/07/06 05:15:39;;;;;;;15.07;4.00;;;;;;;;;;21171335;28;20044;-62
2022/07/06 05:25:41;;;;;;;13.40;3.40;;;;;;;;;;21170236;28;20055;-62
2022/07/06 05:35:43;;;;;;;11.32;2.72;;;;;;;;;;21169566;28;20525;-62
2022/07/06 05:45:45;;;;;;;12.10;3.70;;;;;;;;;;21168639;28;20082;-64
2022/07/06 05:55:49;;;;;;;10.57;3.47;;;;;;;;;;21167324;28;20100;-62
2022/07/06 06:05:51;;;;;;;11.50;3.50;;;;;;;;;;21166853;28;20105;-62
2022/07/06 06:15:53;;;;;;;9.13;3.10;;;;;;;;;;21166257;28;20098;-63
2022/07/06 06:25:55;;;;;;;12.25;3.50;;;;;;;;;;21165041;28;20104;-63
2022/07/06 06:35:57;;;;;;;12.18;2.63;;;;;;;;;;21164814;28;20047;-64
2022/07/06 06:46:00;;;;;;;13.32;3.20;;;;;;;;;;21163830;28;20048;-62
2022/07/06 06:56:02;;;;;;;14.68;3.35;;;;;;;;;;21163444;28;20055;-63
2022/07/06 07:06:04;;;;;;;14.23;3.13;;;;;;;;;;21162635;28;20040;-65
2022/07/06 07:16:06;;;;;;;9.63;2.70;;;;;;;;;;21162488;28;20055;-63
2022/07/06 07:26:08;;;;;;;13.48;3.53;;;;;;;;;;21163403;28;20093;-63
2022/07/06 07:36:11;;;;;;;13.90;3.20;;;;;;;;;;21161778;28;20051;-62
2022/07/06 07:46:13;;;;;;;14.70;3.15;;;;;;;;;;21161996;28;20052;-62
2022/07/06 07:56:16;;;;;;;12.85;2.97;;;;;;;;;;21162621;28;20047;-63
2022/07/06 08:06:18;;;;;;;8.52;2.63;;;;;;;;;;21171728;28;20055;-63
2022/07/06 08:16:21;;;;;;;11.75;3.00;;;;;;;;;;21176507;28;20108;-63
2022/07/06 08:26:23;;;;;;;12.32;3.30;;;;;;;;;;21174486;28;20135;-62
2022/07/06 08:36:25;;;;;;;10.48;3.60;;;;;;;;;;21174880;28;20051;-63
2022/07/06 08:46:29;;;;;;;13.75;3.30;;;;;;;;;;21174210;28;20044;-62
2022/07/06 08:56:31;;;;;;;9.70;3.08;;;;;;;;;;21173216;28;20051;-61
2022/07/06 09:06:35;;;;;;;8.30;3.05;;;;;;;;;;21171340;28;20116;-63
2022/07/06 09:16:37;;;;;;;10.07;2.95;;;;;;;;;;21171647;28;20090;-63
2022/07/06 09:26:41;;;;;;;9.68;2.42;;;;;;;;;;21169218;28;20052;-67
2022/07/06 09:36:45;;;;;;;13.13;3.90;;;;;;;;;;21170139;28;20470;-65
2022/07/06 09:46:48;;;;;;;11.65;3.58;;;;;;;;;;21168133;28;20051;-63
2022/07/06 09:56:51;;;;;;;14.23;3.50;;;;;;;;;;21148358;28;20048;-69
2022/07/06 10:06:53;;;;;;;11.35;3.50;;;;;;;;;;21114821;28;20088;-68
2022/07/06 10:16:57;;;;;;;9.80;3.63;;;;;;;;;;21079258;28;20084;-68
2022/07/06 10:27:00;;;;;;;9.80;4.25;;;;;;;;;;21082267;28;20044;-70
2022/07/06 10:37:03;;;;;;;6.22;3.80;;;;;;;;;;21060655;28;20109;-66
2022/07/06 10:47:06;;;;;;;13.02;4.40;;;;;;;;;;21080880;28;20052;-68
2022/07/06 10:57:10;;;;;;;9.55;4.20;;;;;;;;;;21080027;28;20032;-65
2022/07/06 11:07:13;;;;;;;8.52;3.75;;;;;;;;;;21135923;28;20533;-62
2022/07/06 11:17:16;;;;;;;6.57;3.53;;;;;;;;;;21164576;28;20495;-62
2022/07/06 11:27:18;;;;;;;12.05;3.17;;;;;;;;;;21163510;28;20089;-62
2022/07/06 11:37:23;;;;;;;8.43;2.80;;;;;;;;;;21168021;28;20054;-62
2022/07/06 11:47:31;;;;;;;6.97;3.60;;;;;;;;;;21178399;28;20552;-63
2022/07/06 11:57:34;;;;;;;9.85;3.80;;;;;;;;;;21177901;28;20092;-62
2022/07/06 12:07:36;;;;;;;7.43;3.92;;;;;;;;;;21176002;28;20052;-63
2022/07/06 12:17:43;;;;;;;10.30;3.22;;;;;;;;;;21176103;28;20105;-62
2022/07/06 12:27:45;;;;;;;10.60;3.90;;;;;;;;;;21175611;28;20488;-62
2022/07/06 12:38:00;;;;;;;5.28;3.22;;;;;;;;;;21175768;28;20044;-62
2022/07/06 12:48:02;;;;;;;9.73;3.70;;;;;;;;;;21173539;28;20055;-62
2022/07/06 12:58:05;;;;;;;7.55;3.45;;;;;;;;;;21173854;28;20043;-61
2022/07/06 13:08:08;;;;;;;8.02;3.60;;;;;;;;;;21172490;28;20483;-61
2022/07/06 13:18:10;;;;;;;13.57;3.45;;;;;;;;;;21172985;28;20054;-61
2022/07/06 13:28:13;;;;;;;17.48;3.90;;;;;;;;;;21170351;28;20051;-63
2022/07/06 13:38:16;;;;;;;10.45;4.20;;;;;;;;;;21169866;28;20067;-63
2022/07/06 13:48:18;;;;;;;10.02;3.80;;;;;;;;;;21169651;28;20091;-62
2022/07/06 13:58:21;;;;;;;8.98;3.45;;;;;;;;;;21166437;28;20126;-62
2022/07/06 14:08:23;;;;;;;4.55;2.08;;;;;;;;;;21164832;28;20159;-62
2022/07/06 14:18:25;;;;;;;5.20;2.60;;;;;;;;;;21165274;28;20051;-62
2022/07/06 14:28:27;;;;;;;4.72;2.38;;;;;;;;;;21164450;28;20051;-63
2022/07/06 14:38:28;;;;;;;6.55;1.65;;;;;;;;;;21164572;28;20421;-61
2022/07/06 14:48:31;;;;;;;11.35;2.22;;;;;;;;;;21163118;28;20109;-63
2022/07/06 14:58:33;;;;;;;9.40;2.60;;;;;;;;;;21162609;28;20173;-63
2022/07/06 15:08:35;;;;;;;7.72;2.85;;;;;;;;;;21163803;28;20170;-62
2022/07/06 15:18:37;;;;;;;5.07;2.13;;;;;;;;;;21190172;28;20050;-62
2022/07/06 15:28:39;;;;;;;4.38;1.60;;;;;;;;;;21190226;28;20495;-61
2022/07/06 15:38:41;;;;;;;7.53;2.25;;;;;;;;;;21189430;28;20078;-61
2022/07/06 15:48:43;;;;;;;3.40;1.80;;;;;;;;;;21190291;28;20048;-61
2022/07/06 15:58:46;;;;;;;5.28;1.98;;;;;;;;;;21189724;28;20043;-62
2022/07/06 16:08:48;;;;;;;3.30;1.77;;;;;;;;;;21187488;28;20124;-62
2022/07/06 16:18:50;;;;;;;5.20;1.67;;;;;;;;;;21188166;28;20051;-62
2022/07/06 16:28:52;;;;;;;3.47;1.60;;;;;;;;;;21173731;28;20051;-62
2022/07/06 16:38:54;;;;;;;3.10;1.20;;;;;;;;;;21173040;28;20054;-61
2022/07/06 16:48:56;;;;;;;2.63;1.10;;;;;;;;;;21173052;28;20082;-61
2022/07/06 16:58:58;;;;;;;2.55;1.23;;;;;;;;;;21171265;28;20047;-61
2022/07/06 17:09:00;;;;;;;3.72;1.30;;;;;;;;;;21170113;28;20052;-62
2022/07/06 17:19:02;;;;;;;2.00;1.10;;;;;;;;;;21169750;28;20048;-62
2022/07/06 17:29:04;;;;;;;2.22;0.82;;;;;;;;;;21168694;28;20052;-61
2022/07/06 17:39:08;;;;;;;4.53;1.13;;;;;;;;;;21163580;28;20455;-68
2022/07/06 17:49:10;;;;;;;3.15;1.33;;;;;;;;;;21167202;28;20123;-59
2022/07/06 17:59:12;;;;;;;1.40;1.00;;;;;;;;;;21165819;28;20418;-61
2022/07/06 18:09:14;;;;;;;3.20;1.25;;;;;;;;;;21165008;28;20059;-72
2022/07/06 18:19:16;;;;;;;1.98;1.00;;;;;;;;;;21166095;28;20062;-73
2022/07/06 18:29:18;;;;;;;2.70;1.23;;;;;;;;;;21163867;28;20051;-60
2022/07/06 18:39:20;;;;;;;1.88;0.60;;;;;;;;;;21166323;28;20071;-71
2022/07/06 18:49:22;;;;;;;1.73;0.70;;;;;;;;;;21163160;28;20476;-63
2022/07/06 18:59:24;;;;;;;5.95;1.42;;;;;;;;;;21160177;28;20039;-63
2022/07/06 19:09:26;;;;;;;1.45;1.00;;;;;;;;;;21142563;28;20051;-62
2022/07/06 19:19:28;;;;;;;2.17;1.08;;;;;;;;;;21162060;28;20058;-62
2022/07/06 19:29:30;;;;;;;2.08;1.00;;;;;;;;;;21162383;28;20487;-61
2022/07/06 19:39:33;;;;;;;5.05;1.25;;;;;;;;;;21161422;28;20507;-60
2022/07/06 19:49:35;;;;;;;4.32;1.45;;;;;;;;;;21160922;28;20069;-63
2022/07/06 19:59:38;;;;;;;3.88;0.93;;;;;;;;;;21167850;28;20043;-60
2022/07/06 20:09:40;;;;;;;7.03;1.75;;;;;;;;;;21176071;28;20062;-60
2022/07/06 20:19:42;;;;;;;5.57;1.05;;;;;;;;;;21176208;28;20050;-60
2022/07/06 20:29:45;;;;;;;4.32;1.08;;;;;;;;;;21174172;28;20070;-61
2022/07/06 20:39:50;;;;;;;4.78;1.77;;;;;;;;;;21175194;28;20505;-61
2022/07/06 20:49:53;;;;;;;4.97;1.50;;;;;;;;;;21173734;28;20122;-60
2022/07/06 20:59:55;;;;;;;2.80;1.20;;;;;;;;;;21171893;28;20051;-59
2022/07/06 21:09:57;;;;;;;5.85;1.30;;;;;;;;;;21170190;28;20066;-60
2022/07/06 21:20:00;;;;;;;3.83;1.40;;;;;;;;;;21171474;28;20047;-61
2022/07/06 21:30:03;;;;;;;3.83;1.15;;;;;;;;;;21170985;28;20055;-60
2022/07/06 21:40:05;;;;;;;5.68;2.20;;;;;;;;;;21169384;28;20050;-62
2022/07/06 21:50:07;;;;;;;3.25;1.67;;;;;;;;;;21169422;28;20154;-61
2022/07/06 22:00:10;;;;;;;2.45;1.42;;;;;;;;;;21173193;28;20039;-61
2022/07/06 22:10:13;;;;;;;4.05;1.30;;;;;;;;;;21169182;28;20478;-60
2022/07/06 22:20:16;;;;;;;2.45;0.77;;;;;;;;;;21148166;28;20124;-61
2022/07/06 22:30:18;;;;;;;2.28;1.05;;;;;;;;;;21166744;28;20479;-61
2022/07/06 22:50:41;;;;;;;2.38;1.15;;;;;;;;;;21166624;28;20070;-72
2022/07/06 23:00:43;;;;;;;2.75;1.10;;;;;;;;;;21164799;28;20065;-61
2022/07/06 23:10:45;;;;;;;4.20;1.10;;;;;;;;;;21162795;28;20063;-73
2022/07/06 23:20:47;;;;;;;2.80;0.93;;;;;;;;;;21163104;28;20093;-70
2022/07/06 23:30:50;;;;;;;2.05;0.93;;;;;;;;;;21165837;28;20408;-69
2022/07/06 23:40:52;;;;;;;2.22;0.57;;;;;;;;;;21179164;28;20044;-75
2022/07/06 23:50:54;;;;;;;2.35;0.90;;;;;;;;;;21178673;28;20059;-62
